Time;durP1;ratioP1;P1;durP2;ratioP2;P2;SDS_P1;SDS_P2;PMS_P1;PMS_P2;Temp;Humidity;BMP_temperature;BMP_pressure;BME280_temperature;BME280_humidity;BME280_pressure;Samples;Min_cycle;Max_cycle;Signal;HPM_P1;HPM_P2
2023/07/22 00:00:06;;;;;;;12.88;8.02;;;14.20;99.90;;;;;;5050631;28;37222;-91
2023/07/22 00:02:32;;;;;;;9.02;7.07;;;14.20;99.90;;;;;;5041136;28;38826;-88
2023/07/22 00:04:58;;;;;;;9.63;7.45;;;14.20;99.90;;;;;;5054800;28;39138;-90
2023/07/22 00:07:24;;;;;;;10.15;6.85;;;14.20;99.90;;;;;;5032155;28;37094;-90
2023/07/22 00:09:50;;;;;;;10.60;7.35;;;14.20;99.90;;;;;;5055301;28;37524;-90
2023/07/22 00:12:17;;;;;;;10.82;7.00;;;14.20;99.90;;;;;;5056956;28;39077;-90
2023/07/22 00:14:44;;;;;;;9.68;7.03;;;14.10;99.90;;;;;;5032798;28;39151;-91
2023/07/22 00:17:10;;;;;;;12.77;7.78;;;14.10;99.90;;;;;;5064396;28;36992;-90
2023/07/22 00:19:36;;;;;;;8.60;7.05;;;14.00;99.90;;;;;;5065441;28;36339;-91
2023/07/22 00:22:04;;;;;;;12.05;8.60;;;14.00;99.90;;;;;;5030694;28;38622;-90
2023/07/22 00:24:30;;;;;;;9.93;7.95;;;14.00;99.90;;;;;;5033328;28;37716;-90
2023/07/22 00:26:56;;;;;;;10.48;7.40;;;14.00;99.90;;;;;;5034347;28;37635;-90
2023/07/22 00:29:22;;;;;;;9.60;6.97;;;13.90;99.90;;;;;;5038720;28;36053;-89
2023/07/22 00:31:49;;;;;;;10.00;6.88;;;13.90;99.90;;;;;;5068505;28;39635;-90
2023/07/22 00:34:23;;;;;;;10.30;7.03;;;13.90;99.90;;;;;;5052471;28;38685;-90
2023/07/22 00:36:49;;;;;;;13.43;7.53;;;13.90;99.90;;;;;;5044634;28;37548;-89
2023/07/22 00:39:17;;;;;;;10.02;6.80;;;13.90;99.90;;;;;;5056510;28;37438;-89
2023/07/22 00:41:44;;;;;;;9.38;6.80;;;13.90;99.90;;;;;;5034670;28;38960;-89
2023/07/22 00:44:12;;;;;;;9.52;6.55;;;13.80;99.90;;;;;;5040455;28;38315;-88
2023/07/22 00:46:40;;;;;;;11.15;7.13;;;13.80;99.90;;;;;;5037096;28;37135;-89
2023/07/22 00:49:08;;;;;;;7.25;5.50;;;13.80;99.90;;;;;;5061208;28;37408;-89
2023/07/22 00:51:41;;;;;;;9.75;6.75;;;13.80;99.90;;;;;;5033934;28;37650;-89
2023/07/22 00:54:07;;;;;;;9.38;6.75;;;13.80;99.90;;;;;;5032623;28;37148;-89
2023/07/22 00:56:36;;;;;;;9.43;6.38;;;13.80;99.90;;;;;;5040754;28;37661;-89
2023/07/22 00:59:02;;;;;;;8.82;5.65;;;13.70;99.90;;;;;;5042597;28;36464;-89
2023/07/22 01:04:04;;;;;;;10.35;6.57;;;13.70;99.90;;;;;;5100874;22;20041;-78
2023/07/22 01:06:31;;;;;;;9.27;6.55;;;13.70;99.90;;;;;;5064410;28;38459;-78
2023/07/22 01:08:58;;;;;;;7.38;5.80;;;13.70;99.90;;;;;;5058746;28;37686;-78
2023/07/22 01:11:25;;;;;;;10.27;6.70;;;13.70;99.90;;;;;;5063842;28;40675;-78
2023/07/22 01:13:57;;;;;;;10.05;6.32;;;13.60;99.90;;;;;;5049112;28;38677;-78
2023/07/22 01:16:26;;;;;;;10.27;6.18;;;13.70;99.90;;;;;;5060439;28;39906;-78
2023/07/22 01:18:53;;;;;;;9.38;6.10;;;13.70;99.90;;;;;;5057022;28;39128;-78
2023/07/22 01:21:22;;;;;;;8.85;6.22;;;13.70;99.90;;;;;;5056394;28;38674;-78
2023/07/22 01:23:48;;;;;;;13.00;6.72;;;13.70;99.90;;;;;;5052375;28;39253;-79
2023/07/22 01:26:14;;;;;;;7.82;6.05;;;13.80;99.90;;;;;;5053110;28;38749;-78
2023/07/22 01:28:40;;;;;;;7.65;6.38;;;13.80;99.90;;;;;;5050396;28;36992;-78
2023/07/22 01:31:06;;;;;;;8.90;6.25;;;13.80;99.90;;;;;;5054704;28;39460;-78
2023/07/22 01:33:32;;;;;;;11.98;6.15;;;13.90;99.90;;;;;;5049270;28;38778;-78
2023/07/22 01:35:59;;;;;;;8.27;5.80;;;13.90;99.90;;;;;;5048721;28;38914;-78
2023/07/22 01:38:26;;;;;;;9.25;6.65;;;14.00;99.90;;;;;;5054147;28;37554;-78
2023/07/22 01:40:52;;;;;;;8.88;6.15;;;14.00;99.90;;;;;;5049570;28;37589;-78
2023/07/22 01:43:18;;;;;;;8.75;6.03;;;14.00;99.90;;;;;;5057527;28;37678;-78
2023/07/22 01:45:44;;;;;;;12.10;5.90;;;14.00;99.90;;;;;;5054557;28;38536;-78
2023/07/22 01:48:10;;;;;;;8.10;5.68;;;14.00;99.90;;;;;;5056490;28;36096;-78
2023/07/22 01:50:36;;;;;;;8.27;6.30;;;14.00;99.90;;;;;;5055799;28;37872;-78
2023/07/22 01:53:04;;;;;;;8.25;5.82;;;14.00;99.90;;;;;;5050286;28;38747;-78
2023/07/22 01:55:30;;;;;;;7.72;5.43;;;14.00;99.90;;;;;;5056840;28;39676;-78
2023/07/22 01:57:56;;;;;;;9.38;6.70;;;14.00;99.90;;;;;;5051324;28;36631;-78
2023/07/22 02:00:22;;;;;;;8.25;6.32;;;14.00;99.90;;;;;;5059573;28;39623;-78
2023/07/22 02:02:48;;;;;;;8.23;5.93;;;14.00;99.90;;;;;;5063328;28;40506;-78
2023/07/22 02:05:14;;;;;;;9.32;6.47;;;14.00;99.90;;;;;;5048204;28;38177;-78
2023/07/22 02:07:41;;;;;;;9.80;5.93;;;13.90;99.90;;;;;;5058671;28;37266;-78
2023/07/22 02:10:08;;;;;;;8.00;6.22;;;13.90;99.90;;;;;;5058387;28;39605;-78
2023/07/22 02:12:34;;;;;;;9.95;6.20;;;13.90;99.90;;;;;;5063059;28;37190;-78
2023/07/22 02:15:00;;;;;;;8.95;6.88;;;13.90;99.90;;;;;;5062056;28;38612;-78
2023/07/22 02:17:26;;;;;;;9.90;6.70;;;13.90;99.90;;;;;;5059598;28;37804;-78
2023/07/22 02:19:53;;;;;;;10.57;6.55;;;13.80;99.90;;;;;;5048188;28;40804;-77
2023/07/22 02:22:19;;;;;;;9.48;6.65;;;13.80;99.90;;;;;;5045997;28;38540;-78
2023/07/22 02:24:45;;;;;;;8.45;6.05;;;13.80;99.90;;;;;;5055183;28;38636;-78
2023/07/22 02:27:11;;;;;;;8.57;6.13;;;13.70;99.90;;;;;;5059844;28;37471;-78
2023/07/22 02:29:37;;;;;;;10.38;7.00;;;13.70;99.90;;;;;;5056411;28;39578;-78
2023/07/22 02:32:04;;;;;;;8.77;6.85;;;13.70;99.90;;;;;;5053399;28;39202;-78
2023/07/22 02:34:30;;;;;;;9.80;6.68;;;13.70;99.90;;;;;;5055726;28;38267;-78
2023/07/22 02:36:56;;;;;;;9.80;7.50;;;13.60;99.90;;;;;;5053513;28;38153;-78
2023/07/22 02:39:23;;;;;;;10.70;7.05;;;13.60;99.90;;;;;;5049851;28;40539;-78
2023/07/22 02:41:49;;;;;;;9.95;7.05;;;13.60;99.90;;;;;;5042370;28;40118;-78
2023/07/22 02:44:15;;;;;;;9.43;7.35;;;13.60;99.90;;;;;;5048791;28;38098;-78
2023/07/22 02:46:41;;;;;;;13.07;7.63;;;13.60;99.90;;;;;;5050068;28;37952;-78
2023/07/22 02:49:07;;;;;;;10.85;8.82;;;13.60;99.90;;;;;;5064214;28;39555;-78
2023/07/22 02:51:33;;;;;;;14.98;8.80;;;13.60;99.90;;;;;;5058771;28;39580;-78
2023/07/22 02:53:59;;;;;;;13.40;9.30;;;13.60;99.90;;;;;;5063419;28;38538;-78
2023/07/22 02:56:26;;;;;;;14.18;9.43;;;13.70;99.90;;;;;;5057841;28;38340;-78
2023/07/22 02:58:52;;;;;;;25.80;12.75;;;13.60;99.90;;;;;;5055189;28;39173;-78
2023/07/22 03:01:18;;;;;;;22.75;12.52;;;13.60;99.90;;;;;;5054366;28;37253;-78
2023/07/22 03:03:44;;;;;;;16.70;11.20;;;13.70;99.90;;;;;;5054609;28;37307;-78
2023/07/22 03:06:11;;;;;;;38.85;16.38;;;13.70;99.90;;;;;;5048110;28;37178;-78
2023/07/22 03:08:37;;;;;;;18.17;12.07;;;13.80;99.90;;;;;;5045001;28;39705;-78
2023/07/22 03:11:03;;;;;;;23.02;13.65;;;13.80;99.90;;;;;;5057658;28;38806;-77
2023/07/22 03:13:29;;;;;;;27.42;14.85;;;13.80;99.90;;;;;;5064311;28;38326;-78
2023/07/22 03:15:57;;;;;;;32.10;16.27;;;13.80;99.90;;;;;;5046774;28;39002;-77
2023/07/22 03:18:23;;;;;;;25.98;15.40;;;13.80;99.90;;;;;;5052153;28;39113;-78
2023/07/22 03:20:49;;;;;;;29.70;17.05;;;13.80;99.90;;;;;;5048615;28;38893;-77
2023/07/22 03:23:15;;;;;;;36.60;18.20;;;13.80;99.90;;;;;;5047427;28;38890;-77
2023/07/22 03:25:42;;;;;;;40.15;19.20;;;13.90;99.90;;;;;;5065083;28;38029;-77
2023/07/22 03:28:08;;;;;;;42.63;19.42;;;13.90;99.90;;;;;;5059005;28;40044;-77
2023/07/22 03:30:34;;;;;;;49.88;22.52;;;13.90;99.90;;;;;;5052761;28;39493;-77
2023/07/22 03:33:00;;;;;;;40.40;20.27;;;14.00;99.90;;;;;;5052819;28;38509;-77
2023/07/22 03:35:28;;;;;;;30.00;17.15;;;14.00;99.90;;;;;;5059381;28;38253;-77
2023/07/22 03:37:54;;;;;;;34.97;19.30;;;14.00;99.90;;;;;;5062804;28;37687;-77
2023/07/22 03:40:20;;;;;;;41.08;20.23;;;14.00;99.90;;;;;;5055154;28;39868;-77
2023/07/22 03:42:48;;;;;;;43.83;22.10;;;14.00;99.90;;;;;;5066303;28;39011;-77
2023/07/22 03:45:15;;;;;;;56.22;24.38;;;14.00;99.90;;;;;;5063083;28;38204;-77
2023/07/22 03:47:41;;;;;;;52.17;24.33;;;14.00;99.90;;;;;;5049070;28;40460;-77
2023/07/22 03:50:08;;;;;;;54.67;25.98;;;14.10;99.90;;;;;;5048805;28;38831;-77
2023/07/22 03:52:34;;;;;;;59.53;28.15;;;14.20;99.90;;;;;;5059205;28;39626;-77
2023/07/22 03:55:00;;;;;;;77.03;32.30;;;14.20;99.90;;;;;;5065128;28;38031;-77
2023/07/22 03:57:29;;;;;;;53.67;27.00;;;14.20;99.90;;;;;;5057439;28;39147;-78
2023/07/22 03:59:56;;;;;;;50.67;28.55;;;14.20;99.90;;;;;;5052911;28;39492;-78
2023/07/22 04:02:23;;;;;;;64.65;30.25;;;14.20;99.90;;;;;;5051329;28;37938;-77
2023/07/22 04:04:57;;;;;;;56.45;28.90;;;14.20;99.90;;;;;;5059098;28;39369;-77
2023/07/22 04:07:23;;;;;;;59.00;28.58;;;14.20;99.90;;;;;;5052347;28;40516;-77
2023/07/22 04:09:50;;;;;;;64.90;31.13;;;14.20;99.90;;;;;;5056625;28;39209;-77
2023/07/22 04:12:16;;;;;;;62.30;30.98;;;14.20;99.90;;;;;;5056777;28;38785;-78
2023/07/22 04:14:43;;;;;;;59.30;29.70;;;14.20;99.90;;;;;;5059225;28;37627;-77
2023/07/22 04:17:09;;;;;;;60.70;29.77;;;14.20;99.90;;;;;;5066537;28;39653;-78
2023/07/22 04:19:35;;;;;;;57.75;29.50;;;14.20;99.90;;;;;;5060025;28;39089;-78
2023/07/22 04:22:04;;;;;;;74.13;32.83;;;14.20;99.90;;;;;;5055568;28;39224;-78
2023/07/22 04:24:33;;;;;;;85.07;33.13;;;14.20;99.90;;;;;;5052831;28;38447;-77
2023/07/22 04:27:01;;;;;;;55.33;28.60;;;14.20;99.90;;;;;;5050035;28;38484;-77
2023/07/22 04:29:28;;;;;;;58.60;30.10;;;14.20;99.90;;;;;;5049719;28;38960;-78
2023/07/22 04:32:01;;;;;;;68.13;30.38;;;14.20;99.90;;;;;;5054247;28;37824;-77
2023/07/22 04:34:31;;;;;;;68.05;31.92;;;14.20;99.90;;;;;;5052284;28;47259;-78
2023/07/22 04:36:57;;;;;;;48.10;27.38;;;14.20;99.90;;;;;;5060781;28;39393;-77
2023/07/22 04:39:24;;;;;;;55.25;29.08;;;14.30;99.90;;;;;;5052194;28;38702;-78
2023/07/22 04:41:51;;;;;;;54.33;28.25;;;14.30;99.90;;;;;;5058795;28;37798;-78
2023/07/22 04:44:18;;;;;;;57.40;28.27;;;14.40;99.90;;;;;;5056867;28;38444;-77
2023/07/22 04:46:44;;;;;;;60.53;28.77;;;14.40;99.90;;;;;;5058106;28;39534;-77
2023/07/22 04:49:10;;;;;;;55.95;26.52;;;14.40;99.90;;;;;;5054626;28;38527;-78
2023/07/22 04:51:36;;;;;;;53.38;26.83;;;14.40;99.90;;;;;;5054954;28;37936;-78
2023/07/22 04:54:03;;;;;;;63.03;30.70;;;14.50;99.90;;;;;;5053632;28;37262;-77
2023/07/22 04:56:29;;;;;;;51.20;27.25;;;14.50;99.90;;;;;;5047928;28;39360;-77
2023/07/22 04:58:55;;;;;;;49.83;25.70;;;14.50;99.90;;;;;;5061693;28;39409;-78
2023/07/22 05:01:21;;;;;;;57.88;27.38;;;14.60;99.90;;;;;;5053935;28;38778;-78
2023/07/22 05:03:47;;;;;;;65.50;30.83;;;14.60;99.90;;;;;;5056033;28;36312;-79
2023/07/22 05:06:13;;;;;;;49.20;26.85;;;14.70;99.90;;;;;;5053533;28;39281;-78
2023/07/22 05:08:40;;;;;;;50.70;27.23;;;14.70;99.90;;;;;;5059546;28;38911;-79
2023/07/22 05:11:07;;;;;;;49.53;26.10;;;14.70;99.90;;;;;;5059139;28;38313;-78
2023/07/22 05:13:33;;;;;;;50.90;26.92;;;14.80;99.90;;;;;;5053871;28;37679;-79
2023/07/22 05:15:59;;;;;;;57.53;28.88;;;14.80;99.90;;;;;;5059335;28;38900;-79
2023/07/22 05:18:26;;;;;;;50.92;26.15;;;14.80;99.90;;;;;;5061703;28;39146;-78
2023/07/22 05:20:52;;;;;;;53.17;25.50;;;14.90;99.90;;;;;;5065235;28;38839;-79
2023/07/22 05:23:18;;;;;;;43.08;24.73;;;14.90;99.90;;;;;;5059251;28;38727;-79
2023/07/22 05:25:51;;;;;;;64.35;28.88;;;15.00;99.90;;;;;;5058446;28;39506;-78
2023/07/22 05:28:18;;;;;;;54.28;27.40;;;15.10;99.90;;;;;;5057550;28;38821;-78
2023/07/22 05:30:44;;;;;;;50.65;24.75;;;15.20;99.90;;;;;;5050687;28;36971;-79
2023/07/22 05:33:10;;;;;;;52.13;26.10;;;15.20;99.90;;;;;;5057415;28;37475;-79
2023/07/22 05:35:36;;;;;;;53.88;26.75;;;15.30;99.90;;;;;;5063919;28;38888;-78
2023/07/22 05:38:04;;;;;;;47.88;24.65;;;15.30;99.90;;;;;;5057894;28;38573;-79
2023/07/22 05:40:30;;;;;;;45.35;23.80;;;15.30;99.90;;;;;;5054890;28;38428;-78
2023/07/22 05:42:59;;;;;;;54.67;26.10;;;15.30;99.90;;;;;;5058462;28;38219;-78
2023/07/22 05:45:25;;;;;;;47.33;23.80;;;15.40;99.90;;;;;;5054757;28;39394;-78
2023/07/22 05:47:51;;;;;;;47.70;23.15;;;15.40;99.90;;;;;;5044137;28;38184;-78
2023/07/22 05:50:17;;;;;;;43.08;22.95;;;15.40;99.90;;;;;;5060708;28;39663;-79
2023/07/22 05:52:43;;;;;;;44.83;23.27;;;15.50;99.90;;;;;;5056051;28;39137;-78
2023/07/22 05:55:10;;;;;;;51.83;23.73;;;15.50;99.90;;;;;;5059753;28;39736;-78
2023/07/22 05:57:36;;;;;;;48.40;22.45;;;15.50;99.90;;;;;;5065347;28;38860;-79
2023/07/22 06:00:02;;;;;;;47.00;23.55;;;15.60;99.90;;;;;;5061660;28;38104;-79
2023/07/22 06:02:29;;;;;;;40.42;22.88;;;15.60;99.90;;;;;;5061196;28;38332;-79
2023/07/22 06:04:55;;;;;;;47.40;21.67;;;15.70;99.90;;;;;;5051182;28;39025;-79
2023/07/22 06:07:21;;;;;;;35.65;20.83;;;15.70;99.90;;;;;;5054648;28;38515;-78
2023/07/22 06:09:47;;;;;;;44.97;22.20;;;15.70;99.90;;;;;;5057249;28;39182;-79
2023/07/22 06:12:14;;;;;;;44.42;20.40;;;15.80;99.90;;;;;;5062410;28;37785;-79
2023/07/22 06:14:40;;;;;;;42.33;20.35;;;15.90;99.90;;;;;;5048927;28;38888;-79
2023/07/22 06:17:06;;;;;;;34.03;19.00;;;15.90;99.90;;;;;;5054275;28;39064;-78
2023/07/22 06:19:32;;;;;;;39.22;20.70;;;15.90;99.90;;;;;;5050065;28;39748;-79
2023/07/22 06:21:58;;;;;;;40.60;21.15;;;15.90;99.90;;;;;;5053425;28;38179;-78
2023/07/22 06:24:24;;;;;;;40.58;20.05;;;15.90;99.90;;;;;;5062513;28;39927;-79
2023/07/22 06:26:51;;;;;;;39.22;20.73;;;16.00;99.90;;;;;;5059341;28;39967;-79
2023/07/22 06:29:17;;;;;;;40.90;20.77;;;16.00;99.90;;;;;;5051958;28;38401;-79
2023/07/22 06:31:43;;;;;;;39.30;20.15;;;16.00;99.90;;;;;;5056388;28;37198;-78
2023/07/22 06:34:09;;;;;;;43.35;20.40;;;16.00;99.90;;;;;;5050012;28;39192;-78
2023/07/22 06:36:35;;;;;;;43.38;19.10;;;16.00;99.90;;;;;;5056244;28;37571;-78
2023/07/22 06:39:02;;;;;;;38.60;18.92;;;16.00;99.90;;;;;;5055976;28;36917;-79
2023/07/22 06:41:28;;;;;;;33.90;19.40;;;16.10;99.90;;;;;;5063053;28;38159;-78
2023/07/22 06:43:54;;;;;;;32.00;18.02;;;16.20;99.90;;;;;;5064355;28;38278;-78
2023/07/22 06:46:20;;;;;;;35.80;18.98;;;16.20;99.90;;;;;;5052191;28;39239;-78
2023/07/22 06:48:47;;;;;;;37.63;18.80;;;16.20;99.90;;;;;;5045678;28;39095;-79
2023/07/22 06:51:13;;;;;;;35.75;19.02;;;16.20;99.90;;;;;;5057202;28;37291;-79
2023/07/22 06:53:39;;;;;;;35.35;19.10;;;16.20;99.90;;;;;;5046229;28;40542;-79
2023/07/22 06:56:05;;;;;;;31.85;19.08;;;16.30;99.90;;;;;;5050489;28;38172;-79
2023/07/22 06:58:31;;;;;;;33.22;17.67;;;16.40;99.90;;;;;;5056983;28;38873;-78
2023/07/22 07:00:57;;;;;;;32.60;17.02;;;16.40;99.90;;;;;;5051335;28;39207;-78
2023/07/22 07:03:24;;;;;;;34.28;17.90;;;16.50;99.90;;;;;;5054407;28;39801;-79
2023/07/22 07:05:56;;;;;;;36.97;17.55;;;16.60;99.90;;;;;;5061105;28;39095;-79
2023/07/22 07:08:23;;;;;;;;;;;16.60;99.90;;;;;;5053980;28;38479;-79
2023/07/22 07:10:49;;;;;;;29.17;17.40;;;16.60;99.90;;;;;;5060598;28;38268;-79
2023/07/22 07:13:15;;;;;;;32.38;16.48;;;16.70;99.90;;;;;;5054975;28;39703;-79
2023/07/22 07:15:46;;;;;;;26.25;16.30;;;16.80;99.90;;;;;;5062368;28;37356;-79
2023/07/22 07:18:12;;;;;;;25.00;16.08;;;16.80;99.90;;;;;;5066600;28;38472;-79
2023/07/22 07:20:38;;;;;;;28.83;18.42;;;16.90;99.90;;;;;;5067087;28;36460;-80
2023/07/22 07:23:04;;;;;;;27.25;17.00;;;17.00;99.90;;;;;;5067491;28;38936;-80
2023/07/22 07:25:30;;;;;;;25.90;17.45;;;17.10;99.90;;;;;;5049523;28;40068;-80
2023/07/22 07:27:57;;;;;;;27.67;15.57;;;17.10;99.90;;;;;;5068003;28;38900;-79
2023/07/22 07:30:23;;;;;;;21.95;13.43;;;17.20;99.90;;;;;;5061516;28;38335;-79
2023/07/22 07:32:49;;;;;;;23.50;14.30;;;17.30;99.90;;;;;;5055614;28;38317;-79
2023/07/22 07:35:15;;;;;;;23.42;12.40;;;17.40;99.90;;;;;;5060192;28;39090;-79
2023/07/22 07:37:41;;;;;;;18.88;11.63;;;17.40;99.90;;;;;;5055085;28;38868;-79
2023/07/22 07:40:08;;;;;;;16.67;9.70;;;17.50;99.90;;;;;;5061843;28;36835;-79
2023/07/22 07:42:34;;;;;;;19.08;10.75;;;17.50;99.90;;;;;;5067516;28;37762;-79
2023/07/22 07:45:00;;;;;;;24.23;11.88;;;17.70;99.90;;;;;;5065274;28;39400;-79
2023/07/22 07:47:26;;;;;;;21.90;10.90;;;17.90;99.90;;;;;;5057342;28;39899;-79
2023/07/22 07:49:53;;;;;;;15.80;10.02;;;17.90;99.90;;;;;;5055823;28;38290;-79
2023/07/22 07:52:19;;;;;;;16.45;9.88;;;17.90;99.90;;;;;;5061174;28;38902;-80
2023/07/22 07:54:45;;;;;;;16.60;9.48;;;17.80;99.90;;;;;;5048629;28;37391;-80
2023/07/22 07:57:11;;;;;;;18.92;10.07;;;17.80;99.90;;;;;;5054732;28;36898;-79
2023/07/22 07:59:37;;;;;;;17.40;9.70;;;18.10;99.90;;;;;;5055138;28;38170;-80
2023/07/22 08:02:08;;;;;;;20.00;9.57;;;18.40;99.90;;;;;;5055039;28;37851;-80
2023/07/22 08:04:35;;;;;;;18.08;9.27;;;18.70;99.90;;;;;;5056042;28;38867;-79
2023/07/22 08:07:01;;;;;;;18.00;9.45;;;18.70;99.90;;;;;;5058253;28;39557;-79
2023/07/22 08:09:27;;;;;;;14.88;8.43;;;18.70;99.90;;;;;;5066299;28;40355;-81
2023/07/22 08:11:53;;;;;;;17.80;8.88;;;18.70;99.90;;;;;;5060387;28;39331;-79
2023/07/22 08:14:20;;;;;;;16.35;8.50;;;18.50;99.90;;;;;;5054664;28;39986;-79
2023/07/22 08:16:46;;;;;;;17.50;8.48;;;18.50;99.90;;;;;;5055671;28;37862;-79
2023/07/22 08:19:12;;;;;;;18.08;8.13;;;18.50;99.90;;;;;;5067591;28;38195;-79
2023/07/22 08:21:38;;;;;;;14.60;9.10;;;18.50;99.90;;;;;;5053671;28;40694;-79
2023/07/22 08:24:04;;;;;;;17.98;8.77;;;18.60;99.90;;;;;;5066893;28;38045;-80
2023/07/22 08:26:30;;;;;;;17.15;9.05;;;18.80;99.90;;;;;;5059459;28;38637;-79
2023/07/22 08:28:57;;;;;;;13.60;7.40;;;18.90;99.90;;;;;;5058070;28;37749;-80
2023/07/22 08:31:23;;;;;;;14.15;8.13;;;18.60;99.90;;;;;;5040734;28;39492;-80
2023/07/22 08:33:49;;;;;;;14.57;8.45;;;18.70;99.90;;;;;;5056863;28;38086;-80
2023/07/22 08:36:15;;;;;;;15.68;8.18;;;18.70;99.90;;;;;;5059999;28;37531;-80
2023/07/22 08:38:41;;;;;;;16.65;7.63;;;18.80;99.90;;;;;;5055762;28;38021;-80
2023/07/22 08:41:08;;;;;;;14.60;7.68;;;18.70;99.90;;;;;;5058677;28;37797;-80
2023/07/22 08:43:39;;;;;;;15.57;6.95;;;18.80;99.90;;;;;;5058552;28;38833;-80
2023/07/22 08:46:07;;;;;;;10.95;6.53;;;18.70;99.90;;;;;;5064553;28;39664;-80
2023/07/22 08:48:36;;;;;;;10.60;6.38;;;18.60;99.90;;;;;;5059855;28;37099;-80
2023/07/22 08:51:12;;;;;;;16.67;6.35;;;18.60;99.90;;;;;;5059436;28;39397;-80
2023/07/22 08:53:38;;;;;;;11.82;5.55;;;18.70;99.90;;;;;;5059358;28;37294;-80
2023/07/22 08:56:05;;;;;;;8.85;5.13;;;18.90;99.90;;;;;;5056917;28;38200;-80
2023/07/22 08:58:31;;;;;;;12.88;6.38;;;19.10;99.90;;;;;;5049845;28;37936;-80
2023/07/22 09:00:58;;;;;;;13.13;5.72;;;19.30;99.90;;;;;;5060283;28;39505;-80
2023/07/22 09:03:25;;;;;;;10.20;4.90;;;19.40;99.90;;;;;;5054446;28;39017;-80
2023/07/22 09:05:52;;;;;;;7.40;4.53;;;19.50;99.90;;;;;;5054533;28;37165;-80
2023/07/22 09:08:18;;;;;;;10.60;3.90;;;19.50;99.90;;;;;;5060242;28;37755;-81
2023/07/22 09:10:45;;;;;;;9.70;4.22;;;19.30;99.90;;;;;;5052583;28;39551;-80
2023/07/22 09:13:15;;;;;;;6.05;3.83;;;19.30;99.90;;;;;;5048756;28;38756;-81
2023/07/22 09:15:42;;;;;;;8.38;3.60;;;19.50;99.90;;;;;;5066230;28;39866;-80
2023/07/22 09:18:08;;;;;;;9.18;3.40;;;20.10;99.90;;;;;;5058026;28;37998;-81
2023/07/22 09:20:34;;;;;;;5.72;2.88;;;20.40;96.60;;;;;;5051873;28;39692;-81
2023/07/22 09:23:01;;;;;;;7.95;3.38;;;20.30;92.00;;;;;;5054576;28;39081;-81
2023/07/22 09:25:28;;;;;;;7.35;3.40;;;20.20;97.00;;;;;;5062731;28;48518;-80
2023/07/22 09:28:04;;;;;;;9.63;3.78;;;20.00;99.90;;;;;;5065652;28;37339;-81
2023/07/22 09:30:35;;;;;;;6.90;3.75;;;19.80;96.20;;;;;;5048116;28;47323;-81
2023/07/22 09:33:04;;;;;;;8.68;3.40;;;19.50;98.10;;;;;;5049619;28;38372;-81
2023/07/22 09:35:45;;;;;;;7.57;3.67;;;19.30;99.90;;;;;;5060044;28;38079;-82
2023/07/22 09:38:12;;;;;;;7.72;4.10;;;19.20;99.90;;;;;;5050311;28;36898;-80
2023/07/22 09:40:40;;;;;;;6.95;3.10;;;19.20;99.90;;;;;;5055779;28;40666;-80
2023/07/22 09:43:10;;;;;;;10.50;2.90;;;19.20;99.90;;;;;;5047314;28;38531;-81
2023/07/22 09:45:37;;;;;;;7.35;2.75;;;19.20;99.90;;;;;;5046508;28;38776;-80
2023/07/22 09:48:05;;;;;;;9.38;3.65;;;19.20;99.20;;;;;;5046909;28;37146;-80
2023/07/22 09:50:32;;;;;;;7.45;3.03;;;19.20;97.20;;;;;;5058492;28;40317;-80
2023/07/22 09:52:59;;;;;;;7.32;3.97;;;19.20;99.90;;;;;;5047360;28;38282;-80
2023/07/22 09:55:30;;;;;;;4.57;2.70;;;19.20;94.20;;;;;;5054037;28;39032;-81
2023/07/22 09:58:09;;;;;;;7.78;2.90;;;19.20;99.90;;;;;;5058131;28;36716;-80
2023/07/22 10:00:36;;;;;;;6.95;3.35;;;19.20;99.90;;;;;;5053643;28;47447;-81
2023/07/22 10:03:08;;;;;;;5.95;2.65;;;19.00;96.70;;;;;;5051761;28;40097;-81
2023/07/22 10:05:35;;;;;;;6.88;2.83;;;18.90;95.70;;;;;;5049198;28;38416;-81
2023/07/22 10:08:02;;;;;;;9.55;3.65;;;18.90;98.30;;;;;;5061113;28;37945;-81
2023/07/22 10:10:28;;;;;;;6.72;3.40;;;19.00;98.70;;;;;;5057315;28;38730;-81
2023/07/22 10:12:56;;;;;;;10.00;3.05;;;19.10;97.30;;;;;;5054871;28;38698;-81
2023/07/22 10:15:25;;;;;;;7.70;3.28;;;19.20;92.30;;;;;;5063812;28;38118;-81
2023/07/22 10:17:54;;;;;;;6.15;2.83;;;19.30;99.90;;;;;;5064971;28;37978;-80
2023/07/22 10:20:23;;;;;;;6.93;2.92;;;19.30;99.90;;;;;;5054280;28;38565;-80
2023/07/22 10:22:49;;;;;;;6.75;2.67;;;19.40;96.80;;;;;;5048250;28;37562;-81
2023/07/22 10:25:18;;;;;;;4.60;2.30;;;19.60;98.30;;;;;;5056312;28;38110;-81
2023/07/22 10:27:44;;;;;;;5.32;2.50;;;19.80;90.50;;;;;;5047106;28;38058;-81
2023/07/22 10:30:12;;;;;;;5.82;2.42;;;20.00;90.00;;;;;;5050247;28;40686;-81
2023/07/22 10:32:40;;;;;;;6.28;2.00;;;20.40;79.80;;;;;;5057770;28;38905;-81
2023/07/22 10:35:11;;;;;;;7.22;1.92;;;20.70;76.80;;;;;;5046717;28;38932;-81
2023/07/22 10:37:41;;;;;;;4.82;1.80;;;20.40;50.00;;;;;;5050107;28;36359;-81
2023/07/22 10:40:20;;;;;;;5.28;1.77;;;20.30;68.70;;;;;;5062877;28;40750;-81
2023/07/22 10:42:56;;;;;;;4.20;1.48;;;20.00;59.80;;;;;;5069191;28;38781;-81
2023/07/22 10:45:31;;;;;;;6.85;1.60;;;19.80;69.10;;;;;;5088758;28;39108;-80
2023/07/22 10:48:34;;;;;;;3.10;1.38;;;19.80;64.30;;;;;;5042359;28;36976;-80
2023/07/22 10:51:15;;;;;;;2.67;1.60;;;20.10;82.30;;;;;;5060659;28;47137;-81
2023/07/22 10:53:47;;;;;;;3.23;1.80;;;20.30;54.00;;;;;;5056328;28;47134;-81
2023/07/22 10:56:24;;;;;;;5.38;1.88;;;20.50;62.70;;;;;;5062113;28;37222;-81
2023/07/22 10:58:50;;;;;;;5.57;1.65;;;20.90;88.10;;;;;;5052936;28;36757;-80
2023/07/22 11:01:28;;;;;;;5.13;1.40;;;21.20;59.20;;;;;;5057248;28;38431;-82
2023/07/22 11:04:11;;;;;;;5.57;1.50;;;21.00;51.30;;;;;;5050296;28;37570;-81
2023/07/22 11:06:49;;;;;;;3.13;1.60;;;21.00;43.00;;;;;;5052428;28;47375;-82
2023/07/22 11:09:27;;;;;;;3.58;1.58;;;21.10;35.50;;;;;;5050284;28;36311;-82
2023/07/22 11:11:59;;;;;;;1.80;1.17;;;21.40;45.40;;;;;;5047033;28;39229;-82
2023/07/22 11:14:27;;;;;;;3.50;1.75;;;21.40;56.10;;;;;;5055821;28;37461;-83
2023/07/22 11:16:56;;;;;;;3.92;1.45;;;21.30;53.40;;;;;;5053295;28;37720;-83
2023/07/22 11:19:24;;;;;;;4.05;1.88;;;20.90;56.30;;;;;;5055317;28;37846;-82
2023/07/22 11:21:51;;;;;;;4.53;1.67;;;20.50;50.20;;;;;;5052801;28;39402;-82
2023/07/22 11:24:18;;;;;;;5.05;1.77;;;20.40;61.40;;;;;;5053047;28;38447;-82
2023/07/22 11:26:46;;;;;;;4.53;1.98;;;20.40;59.50;;;;;;5060702;28;37984;-82
2023/07/22 11:29:13;;;;;;;4.18;1.88;;;20.50;52.70;;;;;;5061052;28;37428;-83
2023/07/22 11:31:42;;;;;;;4.13;1.73;;;20.50;61.50;;;;;;5051041;28;37622;-83
2023/07/22 11:34:10;;;;;;;3.25;1.70;;;20.60;60.10;;;;;;5052787;28;38631;-82
2023/07/22 11:36:36;;;;;;;2.80;1.60;;;20.40;59.90;;;;;;5059480;28;36795;-81
2023/07/22 11:39:07;;;;;;;5.35;2.00;;;20.20;62.20;;;;;;5069287;28;35905;-83
2023/07/22 11:41:35;;;;;;;2.50;1.30;;;19.90;63.80;;;;;;5067504;28;38047;-82
2023/07/22 11:44:07;;;;;;;4.63;2.05;;;19.60;61.80;;;;;;5048967;28;36601;-83
2023/07/22 11:46:35;;;;;;;4.63;1.38;;;19.40;74.80;;;;;;5052342;28;47218;-82
2023/07/22 11:49:02;;;;;;;3.67;1.75;;;19.00;72.90;;;;;;5051137;28;37750;-83
2023/07/22 11:51:29;;;;;;;3.22;1.20;;;18.90;87.30;;;;;;5059950;28;48888;-83
2023/07/22 11:53:55;;;;;;;5.05;1.50;;;18.80;76.50;;;;;;5064228;28;37163;-83
2023/07/22 11:56:23;;;;;;;3.38;1.08;;;18.80;93.90;;;;;;5060502;28;38454;-84
2023/07/22 11:58:51;;;;;;;4.53;1.50;;;18.80;76.40;;;;;;5060135;28;36002;-83
2023/07/22 12:01:18;;;;;;;6.25;1.48;;;18.70;81.40;;;;;;5041789;28;37683;-83
2023/07/22 12:03:44;;;;;;;6.93;1.52;;;18.60;85.20;;;;;;5059099;28;39179;-83
2023/07/22 12:06:11;;;;;;;5.68;1.60;;;18.60;92.50;;;;;;5057698;28;38738;-83
2023/07/22 12:08:46;;;;;;;2.33;1.30;;;18.50;91.60;;;;;;5069259;28;38271;-83
2023/07/22 12:11:20;;;;;;;3.97;1.60;;;18.40;93.10;;;;;;5052294;28;38420;-83
2023/07/22 12:13:50;;;;;;;3.15;1.55;;;18.30;90.80;;;;;;5038983;28;40000;-83
2023/07/22 12:16:25;;;;;;;4.95;1.60;;;18.30;93.70;;;;;;5053444;28;38392;-83
2023/07/22 12:18:56;;;;;;;2.78;1.45;;;18.30;99.90;;;;;;5054424;28;38017;-83
2023/07/22 12:21:22;;;;;;;7.10;1.75;;;18.40;99.40;;;;;;5063253;28;39853;-83
2023/07/22 12:23:48;;;;;;;4.57;1.50;;;18.40;97.60;;;;;;5058524;28;37523;-83
2023/07/22 12:26:14;;;;;;;2.33;1.40;;;18.40;99.40;;;;;;5051419;28;38485;-83
2023/07/22 12:28:41;;;;;;;5.63;1.65;;;18.40;93.30;;;;;;5043979;28;38209;-84
2023/07/22 12:31:07;;;;;;;4.47;1.63;;;18.30;96.30;;;;;;5051213;28;39111;-83
2023/07/22 12:33:33;;;;;;;3.03;1.55;;;18.50;98.50;;;;;;5045103;28;39104;-83
2023/07/22 12:35:59;;;;;;;4.50;1.67;;;18.50;99.80;;;;;;5048674;28;38146;-84
2023/07/22 12:38:25;;;;;;;4.68;1.75;;;18.40;95.10;;;;;;5054039;28;38139;-84
2023/07/22 12:40:52;;;;;;;2.75;1.35;;;18.40;92.00;;;;;;5042491;28;38985;-83